Time;durP1;ratioP1;P1;durP2;ratioP2;P2;SDS_P1;SDS_P2;PMS_P1;PMS_P2;Temp;Humidity;BMP_temperature;BMP_pressure;BME280_temperature;BME280_humidity;BME280_pressure;Samples;Min_cycle;Max_cycle;Signal;HPM_P1;HPM_P2
2022/08/07 00:00:48;;;;;;;4.07;1.30;;;;;;;20.78;100.00;100149.14;1695383;84;21860;-57
2022/08/07 00:03:16;;;;;;;3.17;1.40;;;;;;;20.71;100.00;100148.55;1668373;85;21022;-58
2022/08/07 00:05:43;;;;;;;2.47;1.40;;;;;;;20.65;100.00;100142.43;1705847;84;21096;-57
2022/08/07 00:08:10;;;;;;;3.93;1.47;;;;;;;20.65;100.00;100143.75;1673120;85;21103;-57
2022/08/07 00:10:37;;;;;;;3.50;1.13;;;;;;;20.63;100.00;100145.31;1706005;84;21141;-56
2022/08/07 00:13:05;;;;;;;3.40;1.30;;;;;;;20.60;100.00;100140.52;1673132;85;21501;-65
2022/08/07 00:15:32;;;;;;;2.60;1.30;;;;;;;20.54;100.00;100141.54;1705769;84;21077;-57
2022/08/07 00:18:00;;;;;;;2.30;1.00;;;;;;;20.52;100.00;100140.97;1673050;85;21468;-68
2022/08/07 00:20:28;;;;;;;4.67;1.40;;;;;;;20.46;100.00;100142.50;1705142;84;21633;-57
2022/08/07 00:22:55;;;;;;;2.93;1.20;;;;;;;20.41;100.00;100137.41;1673802;85;21551;-57
2022/08/07 00:25:23;;;;;;;2.90;1.17;;;;;;;20.36;100.00;100140.54;1705028;84;21210;-58
2022/08/07 00:27:51;;;;;;;3.10;1.10;;;;;;;20.31;100.00;100136.00;1673641;85;21134;-64
2022/08/07 00:30:18;;;;;;;3.57;1.50;;;;;;;20.28;100.00;100141.00;1705421;84;20918;-57
2022/08/07 00:32:49;;;;;;;3.17;1.27;;;;;;;20.22;100.00;100148.07;1673737;85;21887;-57
2022/08/07 00:35:20;;;;;;;3.60;1.30;;;;;;;20.16;100.00;100141.94;1705533;84;20931;-61
2022/08/07 00:37:48;;;;;;;2.90;1.20;;;;;;;20.14;100.00;100140.58;1673478;84;21912;-69
2022/08/07 00:40:15;;;;;;;3.53;1.73;;;;;;;20.11;100.00;100151.12;1705085;84;21568;-56
2022/08/07 00:42:43;;;;;;;4.57;1.20;;;;;;;20.07;100.00;100148.70;1673582;85;21339;-57
2022/08/07 00:45:11;;;;;;;2.80;1.10;;;;;;;20.09;100.00;100145.83;1705687;84;20962;-58
2022/08/07 00:47:38;;;;;;;3.53;1.00;;;;;;;20.09;100.00;100143.98;1672684;85;21082;-60
2022/08/07 00:50:06;;;;;;;4.57;1.70;;;;;;;20.09;100.00;100147.95;1705293;84;21263;-62
2022/08/07 00:52:34;;;;;;;5.87;1.20;;;;;;;20.06;100.00;100140.50;1705153;84;21413;-57
2022/08/07 00:55:01;;;;;;;3.60;1.40;;;;;;;20.05;100.00;100144.20;1704948;84;21515;-57
2022/08/07 00:57:28;;;;;;;5.47;1.30;;;;;;;20.04;100.00;100144.43;1673199;85;21127;-58
2022/08/07 00:59:56;;;;;;;3.63;1.00;;;;;;;20.04;100.00;100145.26;1705396;84;21529;-58
2022/08/07 01:02:25;;;;;;;3.37;1.67;;;;;;;20.03;100.00;100150.77;1704591;84;21151;-58
2022/08/07 01:04:53;;;;;;;2.57;1.07;;;;;;;20.01;100.00;100148.39;1701095;82;21383;-57
2022/08/07 01:07:21;;;;;;;2.80;1.00;;;;;;;20.03;100.00;100148.13;1669283;85;21018;-58
2022/08/07 01:09:48;;;;;;;3.00;1.07;;;;;;;19.97;100.00;100139.36;1698395;84;21039;-56
2022/08/07 01:12:16;;;;;;;5.90;1.10;;;;;;;19.89;100.00;100141.12;1669605;85;21133;-67
2022/08/07 01:14:44;;;;;;;2.87;1.00;;;;;;;19.84;100.00;100145.80;1721268;83;21540;-58
2022/08/07 01:17:12;;;;;;;5.80;1.30;;;;;;;19.79;100.00;100141.78;1698478;84;21073;-58
2022/08/07 01:19:40;;;;;;;6.93;1.40;;;;;;;19.73;100.00;100147.25;1697967;84;20962;-57
2022/08/07 01:22:09;;;;;;;3.00;1.42;;;;;;;19.67;100.00;100151.16;1698428;84;21034;-58
2022/08/07 01:24:38;;;;;;;4.23;1.30;;;;;;;19.63;100.00;100143.45;1697446;83;21094;-58
2022/08/07 01:27:06;;;;;;;2.20;1.17;;;;;;;19.56;100.00;100148.61;1698690;83;21144;-58
2022/08/07 01:29:33;;;;;;;2.77;1.40;;;;;;;19.48;100.00;100153.80;1669329;85;21113;-67
2022/08/07 01:32:04;;;;;;;3.17;1.37;;;;;;;19.40;100.00;100156.34;1698846;83;21215;-58
2022/08/07 01:34:31;;;;;;;6.57;2.10;;;;;;;19.34;100.00;100163.11;1698423;84;21050;-67
2022/08/07 01:37:00;;;;;;;5.43;1.50;;;;;;;19.24;100.00;100165.07;1698637;84;21140;-57
2022/08/07 01:39:29;;;;;;;3.17;1.60;;;;;;;19.09;100.00;100163.52;1698327;84;21571;-58
2022/08/07 01:41:59;;;;;;;3.60;1.30;;;;;;;18.99;100.00;100172.11;1697859;84;21105;-57
2022/08/07 01:44:28;;;;;;;3.77;1.80;;;;;;;18.84;100.00;100162.63;1669392;85;21505;-60
2022/08/07 01:46:55;;;;;;;2.80;1.00;;;;;;;18.76;100.00;100156.42;1698897;84;21547;-57
2022/08/07 01:49:22;;;;;;;3.53;1.30;;;;;;;18.65;100.00;100156.21;1674581;84;21091;-57
2022/08/07 01:51:50;;;;;;;4.60;1.40;;;;;;;18.59;100.00;100161.11;1699061;84;21312;-57
2022/08/07 01:54:18;;;;;;;3.97;1.50;;;;;;;18.54;100.00;100156.28;1670138;85;21065;-57
2022/08/07 01:56:54;;;;;;;2.55;1.65;;;;;;;18.48;100.00;100158.02;1698506;83;21084;-62
2022/08/07 01:59:44;;;;;;;4.17;1.50;;;;;;;18.44;100.00;100158.20;1670138;85;21133;-58
2022/08/07 02:02:19;;;;;;;5.53;1.30;;;;;;;18.36;100.00;100154.11;1723027;83;21097;-69
2022/08/07 02:04:53;;;;;;;2.80;1.47;;;;;;;18.24;100.00;100151.53;1669679;85;22380;-58
2022/08/07 02:07:22;;;;;;;2.43;1.10;;;;;;;18.25;100.00;100154.97;1696056;84;21163;-57
2022/08/07 02:09:52;;;;;;;4.87;1.60;;;;;;;18.18;100.00;100153.81;1696142;84;20919;-57
2022/08/07 02:12:20;;;;;;;5.13;1.50;;;;;;;18.18;100.00;100152.48;1694903;84;21029;-61
2022/08/07 02:14:52;;;;;;;3.23;1.30;;;;;;;18.20;100.00;100155.67;1695465;84;21582;-58
2022/08/07 02:17:21;;;;;;;3.37;1.10;;;;;;;18.20;100.00;100156.20;1694591;84;22406;-58
2022/08/07 02:19:48;;;;;;;3.43;1.20;;;;;;;18.27;100.00;100156.86;1694791;84;21014;-68
2022/08/07 02:22:18;;;;;;;5.50;1.20;;;;;;;18.31;100.00;100161.16;1668276;85;21496;-66
2022/08/07 02:24:45;;;;;;;4.10;1.20;;;;;;;18.31;100.00;100163.79;1700138;82;21105;-57
2022/08/07 02:27:15;;;;;;;6.40;1.63;;;;;;;18.23;100.00;100156.53;1700019;84;21093;-57
2022/08/07 02:29:42;;;;;;;2.77;1.57;;;;;;;18.28;100.00;100161.62;1699401;84;21781;-62
2022/08/07 02:32:09;;;;;;;2.43;1.27;;;;;;;18.31;100.00;100165.11;1668224;85;22425;-57
2022/08/07 02:34:38;;;;;;;5.30;1.40;;;;;;;18.31;100.00;100159.31;1699405;84;21037;-61
2022/08/07 02:37:07;;;;;;;3.27;1.30;;;;;;;18.31;100.00;100163.27;1668367;85;21116;-58
2022/08/07 02:39:35;;;;;;;5.40;1.43;;;;;;;18.37;100.00;100162.33;1690469;83;21093;-61
2022/08/07 02:42:05;;;;;;;4.97;1.77;;;;;;;18.43;100.00;100166.65;1694568;84;21242;-57
2022/08/07 02:44:32;;;;;;;2.37;1.50;;;;;;;18.48;100.00;100168.05;1667945;85;21479;-57
2022/08/07 02:47:00;;;;;;;3.17;1.30;;;;;;;18.52;100.00;100164.94;1694541;84;21537;-57
2022/08/07 02:49:28;;;;;;;4.93;1.67;;;;;;;18.59;100.00;100163.75;1667330;84;21059;-69
2022/08/07 02:51:57;;;;;;;3.40;1.10;;;;;;;18.60;100.00;100167.19;1668446;85;20947;-57
2022/08/07 02:54:26;;;;;;;3.07;1.30;;;;;;;18.65;100.00;100168.09;1695174;84;21248;-58
2022/08/07 02:56:54;;;;;;;2.70;1.50;;;;;;;18.68;100.00;100162.34;1694760;84;21630;-57
2022/08/07 02:59:25;;;;;;;4.17;1.60;;;;;;;18.73;100.00;100166.93;1668477;85;21079;-57
2022/08/07 03:01:52;;;;;;;6.10;2.25;;;;;;;18.77;100.00;100169.90;1669650;84;21030;-57
2022/08/07 03:04:19;;;;;;;3.23;1.67;;;;;;;18.76;100.00;100169.63;1700402;83;21148;-57
2022/08/07 03:06:47;;;;;;;2.50;1.40;;;;;;;18.78;100.00;100176.77;1669429;85;21764;-57
2022/08/07 03:09:14;;;;;;;5.70;1.83;;;;;;;18.84;100.00;100177.15;1698857;84;21866;-57
2022/08/07 03:11:42;;;;;;;4.10;1.70;;;;;;;18.96;100.00;100176.02;1669594;85;21452;-59
2022/08/07 03:14:10;;;;;;;2.40;1.50;;;;;;;19.17;100.00;100176.36;1698647;84;21085;-58
2022/08/07 03:16:38;;;;;;;2.93;1.40;;;;;;;19.45;100.00;100178.07;1698493;83;21014;-57
2022/08/07 03:19:06;;;;;;;3.70;1.80;;;;;;;19.78;100.00;100173.25;1674754;84;21435;-58
2022/08/07 03:21:33;;;;;;;4.20;1.90;;;;;;;20.09;100.00;100173.09;1698046;84;20982;-57
2022/08/07 03:24:01;;;;;;;4.93;2.00;;;;;;;20.45;100.00;100169.47;1698697;84;21093;-57
2022/08/07 03:26:31;;;;;;;5.30;2.27;;;;;;;20.95;100.00;100165.72;1698833;84;21556;-63
2022/08/07 03:29:01;;;;;;;6.50;1.98;;;;;;;21.82;100.00;100162.23;1698840;84;21510;-57
2022/08/07 03:31:28;;;;;;;3.37;1.50;;;;;;;22.93;100.00;100150.80;1673821;83;21040;-59
2022/08/07 03:34:00;;;;;;;2.63;1.63;;;;;;;24.10;100.00;100148.33;1698703;84;20986;-59
2022/08/07 03:36:29;;;;;;;2.70;1.60;;;;;;;25.17;100.00;100152.86;1698717;84;20954;-58
2022/08/07 03:39:04;;;;;;;2.57;1.57;;;;;;;26.07;95.98;100152.07;1669814;85;21016;-56
2022/08/07 03:41:31;;;;;;;4.40;1.70;;;;;;;26.86;84.28;100147.41;1698549;84;21449;-60
2022/08/07 03:43:59;;;;;;;3.72;1.47;;;;;;;27.54;77.81;100147.20;1698330;84;22114;-58
2022/08/07 03:46:28;;;;;;;3.37;1.85;;;;;;;28.18;66.08;100143.19;1698245;83;20971;-58
2022/08/07 03:48:55;;;;;;;3.10;1.77;;;;;;;28.79;65.96;100152.47;1670132;85;21390;-57
2022/08/07 03:51:22;;;;;;;2.70;1.82;;;;;;;29.56;63.21;100152.59;1698144;83;21563;-58
2022/08/07 03:53:50;;;;;;;4.20;2.00;;;;;;;30.38;59.28;100148.81;1698485;84;21304;-57
2022/08/07 03:56:20;;;;;;;3.22;1.70;;;;;;;31.18;55.19;100142.38;1698556;83;21260;-58
2022/08/07 03:58:47;;;;;;;2.80;1.25;;;;;;;31.84;51.39;100145.89;1698487;84;22188;-58
2022/08/07 04:01:16;;;;;;;3.77;1.27;;;;;;;32.36;47.69;100151.68;1697996;84;21061;-57
2022/08/07 04:03:45;;;;;;;2.92;1.42;;;;;;;32.83;46.53;100150.58;1698937;84;21301;-57
2022/08/07 04:06:12;;;;;;;2.55;1.30;;;;;;;33.41;42.82;100149.41;1668837;85;20999;-60
2022/08/07 04:08:40;;;;;;;3.67;2.02;;;;;;;33.85;42.53;100151.48;1699429;84;21279;-58
2022/08/07 04:11:09;;;;;;;2.27;1.30;;;;;;;34.25;39.14;100145.30;1699470;84;21486;-57
2022/08/07 04:13:37;;;;;;;2.80;1.50;;;;;;;34.45;36.65;100147.00;1700099;84;21136;-57
2022/08/07 04:16:05;;;;;;;2.85;1.40;;;;;;;34.45;35.62;100144.30;1668603;85;21011;-58
2022/08/07 04:18:33;;;;;;;3.22;1.72;;;;;;;34.52;35.19;100142.37;1700314;83;21101;-67
2022/08/07 04:21:00;;;;;;;2.22;1.50;;;;;;;34.47;33.94;100138.52;1699189;84;21367;-58
2022/08/07 04:23:27;;;;;;;5.78;1.37;;;;;;;34.33;34.13;100132.18;1699938;83;21128;-57
2022/08/07 04:25:55;;;;;;;3.40;1.42;;;;;;;34.24;33.62;100128.83;1700416;83;21610;-57
2022/08/07 04:28:22;;;;;;;3.85;1.42;;;;;;;34.10;34.36;100128.67;1669164;85;21523;-57
2022/08/07 04:30:50;;;;;;;2.20;1.05;;;;;;;34.37;34.47;100133.06;1700335;84;20871;-58
2022/08/07 04:33:19;;;;;;;3.85;1.22;;;;;;;34.83;33.16;100134.84;1699289;84;21045;-59
2022/08/07 04:35:48;;;;;;;4.95;1.40;;;;;;;34.91;32.86;100134.44;1700267;84;22084;-58
2022/08/07 04:38:16;;;;;;;3.50;1.92;;;;;;;34.98;32.72;100136.75;1700346;84;21483;-57
2022/08/07 04:40:46;;;;;;;3.47;1.25;;;;;;;35.24;32.11;100133.52;1700416;84;21005;-67
2022/08/07 04:43:16;;;;;;;4.08;1.50;;;;;;;35.54;32.23;100135.19;1699647;84;21148;-58
2022/08/07 04:46:10;;;;;;;3.55;1.50;;;;;;;35.88;31.30;100139.58;1700413;84;21223;-57
2022/08/07 04:49:11;;;;;;;2.12;1.32;;;;;;;35.82;30.56;100139.06;1698988;84;21088;-59
2022/08/07 04:51:42;;;;;;;;;;;;;;;35.61;31.14;100141.89;1670429;84;21045;-65
2022/08/07 04:54:20;;;;;;;2.95;1.50;;;;;;;35.67;30.95;100135.84;1694415;84;20169;-58
2022/08/07 04:57:14;;;;;;;3.67;1.10;;;;;;;35.72;30.94;100138.26;1668651;85;21011;-58
2022/08/07 05:00:12;;;;;;;3.85;1.40;;;;;;;35.65;30.07;100134.06;1694665;84;21463;-57
2022/08/07 05:02:54;;;;;;;3.70;1.80;;;;;;;35.23;30.41;100141.98;1694990;84;21441;-61
2022/08/07 05:05:57;;;;;;;4.50;1.55;;;;;;;34.81;31.08;100142.52;1693332;84;21033;-59
2022/08/07 05:08:45;;;;;;;2.12;1.40;;;;;;;34.56;31.04;100148.09;1586612;89;21201;-62
2022/08/07 05:11:25;;;;;;;3.10;1.20;;;;;;;34.22;31.37;100144.64;1583223;89;21012;-57
2022/08/07 05:14:07;;;;;;;3.12;1.22;;;;;;;34.19;32.18;100141.27;1621255;87;21340;-57
2022/08/07 05:16:36;;;;;;;3.87;1.37;;;;;;;34.40;31.96;100145.91;1688968;84;20966;-58
2022/08/07 05:19:11;;;;;;;3.45;1.50;;;;;;;34.61;31.87;100146.47;1644822;85;21038;-59
2022/08/07 05:21:38;;;;;;;2.87;1.40;;;;;;;34.81;31.61;100141.16;1698016;83;20994;-65
2022/08/07 05:24:11;;;;;;;3.30;1.50;;;;;;;35.00;31.18;100141.84;1669587;85;22030;-59
2022/08/07 05:26:38;;;;;;;2.45;1.37;;;;;;;35.21;31.20;100142.35;1698798;84;21218;-58
2022/08/07 05:29:07;;;;;;;3.75;1.65;;;;;;;35.45;31.43;100141.33;1698917;84;21002;-58
2022/08/07 05:31:38;;;;;;;1.87;1.30;;;;;;;35.67;30.81;100136.41;1698483;84;21010;-63
2022/08/07 05:34:12;;;;;;;3.52;1.52;;;;;;;35.57;30.96;100144.52;1698858;84;21962;-58
2022/08/07 05:36:46;;;;;;;4.90;1.45;;;;;;;35.42;31.02;100139.36;1675505;84;20974;-58
2022/08/07 05:39:21;;;;;;;2.80;1.42;;;;;;;35.30;31.35;100141.58;1688055;84;21926;-65
2022/08/07 05:41:49;;;;;;;6.47;2.10;;;;;;;35.39;31.39;100140.05;1700112;84;21455;-57
2022/08/07 05:44:19;;;;;;;3.45;1.55;;;;;;;35.53;31.17;100145.80;1699402;84;20999;-58
2022/08/07 05:46:52;;;;;;;3.67;1.65;;;;;;;35.52;30.72;100155.08;1670409;85;20958;-57
2022/08/07 05:49:21;;;;;;;4.15;1.50;;;;;;;35.19;31.33;100149.25;1698232;83;21031;-66
2022/08/07 05:51:50;;;;;;;2.42;1.42;;;;;;;34.99;32.31;100153.25;1699011;84;21510;-58
2022/08/07 05:54:19;;;;;;;3.00;1.77;;;;;;;35.17;32.21;100143.41;1699044;84;21571;-57
2022/08/07 05:56:47;;;;;;;4.87;1.42;;;;;;;35.31;32.06;100149.17;1699098;84;21343;-57
2022/08/07 05:59:16;;;;;;;2.87;1.50;;;;;;;35.39;31.79;100145.47;1674225;84;21061;-63
2022/08/07 06:01:45;;;;;;;2.85;1.40;;;;;;;35.13;31.73;100146.61;1699317;84;21462;-58
2022/08/07 06:04:14;;;;;;;5.25;1.60;;;;;;;34.83;32.50;100145.09;1670062;85;21176;-58
2022/08/07 06:06:41;;;;;;;3.98;1.62;;;;;;;34.82;32.74;100149.52;1698758;84;20875;-57
2022/08/07 06:09:09;;;;;;;4.72;2.00;;;;;;;34.86;33.19;100147.69;1698183;83;21006;-59
2022/08/07 06:11:38;;;;;;;2.47;1.60;;;;;;;35.08;33.07;100146.28;1698707;84;21232;-57
2022/08/07 06:14:05;;;;;;;3.58;1.52;;;;;;;35.26;33.17;100150.77;1669776;85;21834;-58
2022/08/07 06:16:34;;;;;;;2.65;1.47;;;;;;;35.46;31.75;100149.70;1698951;84;21140;-58
2022/08/07 06:19:02;;;;;;;3.77;1.75;;;;;;;35.47;32.69;100148.55;1698818;84;20978;-67
2022/08/07 06:21:29;;;;;;;6.65;2.85;;;;;;;35.65;32.19;100145.45;1669141;85;21018;-68
2022/08/07 06:23:58;;;;;;;5.40;1.77;;;;;;;35.56;31.82;100142.38;1698553;84;22241;-58
2022/08/07 06:26:25;;;;;;;3.72;1.52;;;;;;;35.44;32.10;100145.19;1670245;85;21503;-58
2022/08/07 06:28:58;;;;;;;3.70;1.42;;;;;;;35.66;32.08;100144.34;1698923;84;21243;-59
2022/08/07 06:31:26;;;;;;;3.30;1.45;;;;;;;35.89;31.37;100135.72;1698580;83;21103;-57
2022/08/07 06:33:54;;;;;;;4.42;2.15;;;;;;;36.08;31.23;100139.02;1698893;84;21049;-57
2022/08/07 06:36:25;;;;;;;5.67;2.00;;;;;;;36.05;31.01;100145.94;1698595;84;21048;-57
2022/08/07 06:38:53;;;;;;;5.65;1.70;;;;;;;36.06;31.61;100133.94;1698355;83;20974;-57
2022/08/07 06:41:27;;;;;;;5.92;1.92;;;;;;;36.33;32.19;100141.41;1669405;85;21620;-59
2022/08/07 06:43:54;;;;;;;3.87;1.75;;;;;;;36.68;32.09;100145.37;1698351;84;21073;-58
2022/08/07 06:46:21;;;;;;;6.53;2.00;;;;;;;36.92;31.39;100135.48;1698634;84;21069;-58
2022/08/07 06:48:49;;;;;;;4.20;1.60;;;;;;;37.03;31.56;100136.26;1698740;83;21489;-59
2022/08/07 06:51:20;;;;;;;4.28;1.80;;;;;;;37.33;31.87;100136.31;1698191;84;21133;-58
2022/08/07 06:53:47;;;;;;;;;;;;;;;37.72;32.20;100128.69;1671821;85;22261;-67
2022/08/07 06:56:15;;;;;;;4.08;1.72;;;;;;;38.30;31.11;100135.58;1698817;84;20453;-58
2022/08/07 06:58:43;;;;;;;2.95;1.72;;;;;;;38.77;29.76;100138.19;1698896;84;21041;-57
2022/08/07 07:01:11;;;;;;;2.85;2.00;;;;;;;39.02;27.35;100131.58;1698177;84;20978;-64
2022/08/07 07:03:40;;;;;;;4.83;2.55;;;;;;;38.94;28.52;100132.88;1698886;84;21994;-67
2022/08/07 07:06:09;;;;;;;3.92;2.15;;;;;;;39.20;27.46;100131.70;1668794;85;22477;-58
2022/08/07 07:08:36;;;;;;;4.35;2.05;;;;;;;39.10;26.79;100134.57;1695050;84;21081;-59
2022/08/07 07:11:04;;;;;;;3.22;1.72;;;;;;;38.68;26.64;100128.95;1668096;85;21041;-64
2022/08/07 07:13:40;;;;;;;3.77;1.67;;;;;;;38.29;27.44;100130.72;1695142;84;20977;-64
2022/08/07 07:16:17;;;;;;;3.08;1.50;;;;;;;38.08;26.92;100131.87;1668618;84;21164;-58
2022/08/07 07:18:55;;;;;;;3.17;1.60;;;;;;;37.72;27.42;100134.91;1694810;84;21224;-64
2022/08/07 07:21:32;;;;;;;4.95;1.77;;;;;;;37.56;27.37;100133.55;1694191;84;22408;-62
2022/08/07 07:23:59;;;;;;;4.20;1.55;;;;;;;37.52;27.93;100137.58;1668415;85;21042;-58
2022/08/07 07:26:26;;;;;;;4.75;1.72;;;;;;;37.42;27.30;100129.47;1699119;84;21026;-66
2022/08/07 07:29:02;;;;;;;3.87;1.20;;;;;;;37.30;27.98;100139.77;1668443;85;21551;-57
2022/08/07 07:31:40;;;;;;;3.33;1.40;;;;;;;37.19;28.57;100137.66;1695112;84;22589;-61
2022/08/07 07:34:09;;;;;;;4.85;1.60;;;;;;;37.20;27.96;100133.81;1668190;85;21018;-66
2022/08/07 07:36:37;;;;;;;2.62;1.40;;;;;;;37.13;28.43;100135.64;1695363;84;21462;-59
2022/08/07 07:39:04;;;;;;;2.35;1.40;;;;;;;37.11;28.54;100146.08;1668373;85;21018;-57
2022/08/07 07:41:33;;;;;;;2.98;1.70;;;;;;;37.10;28.32;100141.23;1695060;84;21865;-57
2022/08/07 07:44:01;;;;;;;3.85;1.30;;;;;;;37.03;28.04;100134.90;1668484;85;21137;-65
2022/08/07 07:46:32;;;;;;;5.03;1.50;;;;;;;36.82;28.07;100140.73;1694482;83;22287;-58
2022/08/07 07:48:59;;;;;;;2.72;1.37;;;;;;;36.62;28.45;100138.09;1668383;85;21027;-59
2022/08/07 07:51:26;;;;;;;3.10;1.30;;;;;;;36.57;29.55;100137.62;1690228;84;21057;-57
2022/08/07 07:53:53;;;;;;;3.55;1.60;;;;;;;36.55;29.13;100136.61;1668001;85;21118;-59
2022/08/07 07:56:23;;;;;;;3.80;1.67;;;;;;;36.54;28.57;100139.90;1694611;84;22352;-58
2022/08/07 07:58:50;;;;;;;2.80;1.20;;;;;;;36.34;29.11;100138.35;1668578;85;21066;-66
2022/08/07 08:01:17;;;;;;;4.30;1.30;;;;;;;36.21;29.37;100137.70;1695035;84;21033;-58
2022/08/07 08:03:44;;;;;;;2.45;1.20;;;;;;;36.13;29.53;100136.59;1645230;84;21049;-59
2022/08/07 08:06:12;;;;;;;3.35;1.45;;;;;;;36.22;29.88;100132.52;1668165;85;21090;-57
2022/08/07 08:08:41;;;;;;;6.03;1.12;;;;;;;36.33;29.32;100136.77;1694750;84;21104;-57
2022/08/07 08:11:09;;;;;;;3.00;1.50;;;;;;;36.31;29.12;100132.28;1667623;85;21081;-65
2022/08/07 08:13:42;;;;;;;2.58;1.40;;;;;;;36.38;29.78;100131.63;1695212;84;21503;-58
2022/08/07 08:16:11;;;;;;;2.77;1.30;;;;;;;36.48;28.75;100131.86;1668380;85;20995;-57
2022/08/07 08:18:38;;;;;;;3.35;1.70;;;;;;;36.49;29.40;100134.00;1695315;84;21026;-57
2022/08/07 08:27:03;;;;;;;3.02;1.82;;;;;;;36.40;28.97;100136.11;1667505;85;21152;-58
2022/08/07 08:29:06;;;;;;;4.50;1.80;;;;;;;36.21;29.69;100120.64;1695366;84;21595;-58
2022/08/07 08:31:35;;;;;;;3.35;1.80;;;;;;;36.18;29.47;100122.72;1668089;84;21038;-58
2022/08/07 08:34:03;;;;;;;5.30;2.02;;;;;;;36.20;29.88;100121.22;1694866;84;22214;-57
2022/08/07 08:36:31;;;;;;;5.35;1.80;;;;;;;36.26;29.26;100123.86;1667567;85;21023;-59
2022/08/07 08:39:00;;;;;;;2.30;1.35;;;;;;;36.32;29.62;100120.84;1695274;84;21010;-58
2022/08/07 08:41:50;;;;;;;3.17;1.72;;;;;;;36.39;29.74;100125.83;1668301;85;21477;-58
2022/08/07 08:44:25;;;;;;;2.77;1.30;;;;;;;36.55;29.64;100118.95;1695275;84;21016;-58
2022/08/07 08:47:28;;;;;;;2.10;1.30;;;;;;;36.72;30.59;100120.42;1668626;85;21076;-58
2022/08/07 08:50:20;;;;;;;8.15;1.75;;;;;;;36.99;29.63;100113.89;1695331;84;21367;-57
2022/08/07 08:53:11;;;;;;;4.60;2.00;;;;;;;37.26;29.22;100112.52;1694367;84;21089;-58
2022/08/07 08:55:57;;;;;;;3.25;1.70;;;;;;;37.45;29.38;100114.37;1671037;84;21018;-58
2022/08/07 08:58:51;;;;;;;3.25;1.52;;;;;;;37.49;28.01;100117.33;1694674;84;21113;-58
2022/08/07 09:01:28;;;;;;;2.25;1.37;;;;;;;37.11;28.56;100116.19;1694761;84;21228;-67
2022/08/07 09:04:05;;;;;;;2.83;1.35;;;;;;;36.93;28.89;100113.16;1694259;84;21052;-61
2022/08/07 09:07:04;;;;;;;4.33;1.60;;;;;;;36.78;29.17;100121.66;1658338;84;21100;-57
2022/08/07 09:09:47;;;;;;;3.80;2.00;;;;;;;36.64;29.25;100114.66;1668450;85;21066;-58
2022/08/07 09:12:39;;;;;;;3.75;2.00;;;;;;;36.51;29.54;100108.03;1647210;84;21192;-59
2022/08/07 09:15:24;;;;;;;2.92;1.80;;;;;;;36.50;29.80;100098.33;1699804;84;21230;-58
2022/08/07 09:18:14;;;;;;;4.22;2.50;;;;;;;36.62;31.23;100104.72;1668943;85;20951;-60
2022/08/07 09:21:04;;;;;;;3.42;1.87;;;;;;;36.88;30.52;100097.97;1699586;84;21006;-58
2022/08/07 09:24:01;;;;;;;6.33;2.12;;;;;;;37.18;29.81;100102.13;1662292;84;21859;-58
2022/08/07 09:26:45;;;;;;;4.72;1.92;;;;;;;37.23;29.64;100098.30;1668233;85;20986;-65
2022/08/07 09:29:23;;;;;;;2.92;2.12;;;;;;;37.23;29.63;100103.73;1695469;84;21859;-58
2022/08/07 09:32:29;;;;;;;4.50;2.22;;;;;;;37.16;29.32;100100.92;1681136;84;21109;-57
2022/08/07 09:35:19;;;;;;;4.60;2.55;;;;;;;37.11;29.10;100095.81;1667906;85;20962;-61
2022/08/07 09:38:06;;;;;;;5.20;2.00;;;;;;;37.08;31.04;100091.10;1695194;84;21094;-57
2022/08/07 09:40:50;;;;;;;4.22;2.00;;;;;;;37.39;30.06;100106.28;1694924;84;21033;-66
2022/08/07 09:43:44;;;;;;;5.37;2.45;;;;;;;37.46;29.54;100103.69;1668684;85;21317;-57
2022/08/07 09:46:56;;;;;;;3.45;2.02;;;;;;;37.54;29.34;100103.20;1694450;84;21002;-58
2022/08/07 09:50:00;;;;;;;3.98;1.98;;;;;;;37.67;28.90;100099.11;1667613;85;21033;-60
2022/08/07 09:52:45;;;;;;;3.85;2.05;;;;;;;37.60;28.68;100103.09;1695474;84;21584;-57
2022/08/07 09:55:22;;;;;;;6.17;2.65;;;;;;;37.53;28.99;100101.64;1668117;85;20967;-57
2022/08/07 09:58:26;;;;;;;8.00;3.77;;;;;;;37.35;28.90;100099.44;1695795;84;21087;-59
2022/08/07 10:01:33;;;;;;;7.25;4.10;;;;;;;37.19;28.08;100098.83;1668869;85;21060;-58
2022/08/07 10:04:43;;;;;;;6.40;3.25;;;;;;;37.11;27.05;100101.24;1699297;84;21022;-58
2022/08/07 10:07:44;;;;;;;6.30;3.95;;;;;;;37.03;26.40;100092.78;1669002;85;21067;-62
2022/08/07 10:10:39;;;;;;;3.17;2.17;;;;;;;37.14;26.68;100091.00;1695444;83;20987;-58
2022/08/07 10:13:40;;;;;;;7.08;2.50;;;;;;;37.27;27.56;100097.77;1668737;85;22286;-58
2022/08/07 10:16:31;;;;;;;4.12;2.72;;;;;;;37.27;26.13;100095.05;1699642;84;20998;-68
2022/08/07 10:19:09;;;;;;;3.98;2.92;;;;;;;37.17;27.62;100093.00;1668509;85;21119;-58
2022/08/07 10:22:33;;;;;;;4.97;3.10;;;;;;;37.44;26.82;100086.98;1662713;84;21048;-63
2022/08/07 10:25:12;;;;;;;4.22;2.85;;;;;;;37.62;26.46;100089.34;1667369;85;21018;-59
2022/08/07 10:28:06;;;;;;;5.47;2.83;;;;;;;37.69;26.78;100083.19;1695752;84;21572;-58
2022/08/07 10:31:13;;;;;;;4.90;2.52;;;;;;;37.63;26.91;100081.38;1668387;85;20999;-60
2022/08/07 10:34:07;;;;;;;3.90;2.37;;;;;;;37.61;26.74;100076.88;1695673;84;21052;-70
2022/08/07 10:36:53;;;;;;;3.45;2.37;;;;;;;37.64;26.12;100079.45;1669376;85;21094;-59
2022/08/07 10:39:40;;;;;;;3.80;2.37;;;;;;;37.64;26.93;100080.80;1699100;84;21635;-58
2022/08/07 10:42:37;;;;;;;4.97;2.33;;;;;;;37.67;26.01;100080.07;1700221;84;21256;-57
2022/08/07 10:45:35;;;;;;;6.78;2.90;;;;;;;37.55;26.50;100080.31;1669170;85;21435;-59
2022/08/07 10:48:34;;;;;;;4.72;3.08;;;;;;;37.74;26.38;100083.66;1694967;84;20959;-58
2022/08/07 10:51:23;;;;;;;4.75;2.72;;;;;;;37.81;25.85;100078.07;1674947;84;21021;-58
2022/08/07 10:54:27;;;;;;;4.03;2.40;;;;;;;37.45;25.17;100077.08;1696286;84;21963;-57
2022/08/07 10:57:23;;;;;;;8.48;2.60;;;;;;;37.27;25.55;100080.11;1668533;85;21691;-57
2022/08/07 11:00:07;;;;;;;3.77;2.17;;;;;;;37.23;25.57;100081.99;1695629;84;21026;-59
2022/08/07 11:02:45;;;;;;;5.87;2.35;;;;;;;37.22;25.57;100075.00;1669681;85;21423;-59
2022/08/07 11:05:36;;;;;;;3.02;2.10;;;;;;;37.23;24.96;100074.62;1696727;84;21022;-59
2022/08/07 11:08:41;;;;;;;3.45;2.65;;;;;;;37.27;25.71;100082.83;1668967;85;21535;-59
2022/08/07 11:11:24;;;;;;;4.40;2.80;;;;;;;37.23;25.67;100079.28;1699554;84;21113;-68
2022/08/07 11:14:26;;;;;;;5.15;2.42;;;;;;;37.18;26.57;100084.46;1668992;85;20991;-58
2022/08/07 11:17:03;;;;;;;7.62;2.33;;;;;;;37.17;27.44;100081.55;1695779;83;21077;-57
2022/08/07 11:19:51;;;;;;;5.45;2.40;;;;;;;37.21;26.82;100080.23;1668801;85;21524;-58
2022/08/07 11:22:26;;;;;;;6.12;2.33;;;;;;;37.05;27.05;100082.31;1694430;84;21100;-59
2022/08/07 11:25:17;;;;;;;6.28;2.60;;;;;;;36.92;28.00;100078.42;1681715;84;21358;-58
2022/08/07 11:28:24;;;;;;;3.08;2.08;;;;;;;37.07;27.20;100077.31;1668182;85;22142;-66
2022/08/07 11:31:06;;;;;;;4.17;2.83;;;;;;;37.03;26.95;100078.62;1694783;84;20963;-58
2022/08/07 11:33:50;;;;;;;6.37;2.92;;;;;;;36.98;27.67;100074.29;1668332;85;21939;-58
2022/08/07 11:36:39;;;;;;;4.45;2.52;;;;;;;37.05;26.40;100070.87;1694746;84;21022;-69
2022/08/07 11:39:32;;;;;;;4.37;2.40;;;;;;;37.00;27.22;100071.97;1668842;85;21435;-58
2022/08/07 11:42:22;;;;;;;4.28;2.10;;;;;;;37.02;28.11;100070.27;1695378;84;20947;-58
2022/08/07 11:45:18;;;;;;;3.35;1.85;;;;;;;37.15;28.14;100068.11;1668990;85;25171;-58
2022/08/07 11:48:07;;;;;;;3.30;2.12;;;;;;;37.29;26.89;100069.66;1695063;83;21191;-67
2022/08/07 11:51:09;;;;;;;5.00;2.20;;;;;;;37.39;27.33;100060.06;1668427;84;21002;-58
2022/08/07 11:53:53;;;;;;;4.47;1.77;;;;;;;37.38;26.95;100068.80;1699713;84;22447;-58
2022/08/07 11:56:28;;;;;;;6.30;2.02;;;;;;;37.41;26.97;100064.02;1667865;85;21085;-58
2022/08/07 11:59:13;;;;;;;3.60;2.25;;;;;;;37.55;25.53;100059.92;1694534;84;21065;-62
2022/08/07 12:01:51;;;;;;;3.50;1.87;;;;;;;37.44;25.45;100050.27;1668707;85;21023;-60
2022/08/07 12:04:53;;;;;;;3.47;1.50;;;;;;;37.42;26.17;100051.98;1695539;83;21073;-58
2022/08/07 12:07:39;;;;;;;3.42;2.30;;;;;;;37.70;26.07;100052.91;1667765;85;21231;-58